createdAt,value
2018-07-25T00:00:13.245Z,101353.31
2018-07-25T00:02:43.381Z,101348.80
2018-07-25T00:05:14.732Z,101355.64
2018-07-25T00:07:45.380Z,101356.47
2018-07-25T00:10:15.691Z,101354.92
2018-07-25T00:12:45.672Z,101357.58
2018-07-25T00:15:15.821Z,101355.41
2018-07-25T00:17:46.823Z,101358.52
2018-07-25T00:20:16.908Z,101365.70
2018-07-25T00:22:47.276Z,101364.99
2018-07-25T00:25:17.534Z,101357.27
2018-07-25T00:27:47.735Z,101367.73
2018-07-25T00:30:18.551Z,101362.66
2018-07-25T00:32:48.654Z,101361.37
2018-07-25T00:35:18.781Z,101366.13
2018-07-25T00:37:48.957Z,101362.73
2018-07-25T00:40:19.329Z,101364.91
2018-07-25T00:42:50.175Z,101364.02
2018-07-25T00:45:21.014Z,101366.65
2018-07-25T00:47:51.522Z,101363.77
2018-07-25T00:50:21.696Z,101366.27
2018-07-25T00:52:52.659Z,101367.05
2018-07-25T00:55:22.772Z,101367.62
2018-07-25T00:57:53.054Z,101362.14
2018-07-25T01:00:23.641Z,101363.47
2018-07-25T01:02:53.906Z,101366.69
2018-07-25T01:05:24.230Z,101363.61
2018-07-25T01:07:54.765Z,101364.84
2018-07-25T01:10:25.198Z,101367.05
2018-07-25T01:12:55.818Z,101366.81
2018-07-25T01:15:26.269Z,101366.16
2018-07-25T01:17:57.620Z,101368.38
2018-07-25T01:20:28.435Z,101365.39
2018-07-25T01:22:59.114Z,101371.63
2018-07-25T01:25:29.781Z,101361.02
2018-07-25T01:28:00.291Z,101370.47
2018-07-25T01:30:30.346Z,101374.38
2018-07-25T01:33:00.517Z,101376.50
2018-07-25T01:35:30.639Z,101374.05
2018-07-25T01:38:00.813Z,101370.52
2018-07-25T01:40:30.937Z,101371.89
2018-07-25T01:43:00.979Z,101373.64
2018-07-25T01:45:31.042Z,101381.46
2018-07-25T01:48:01.123Z,101375.98
2018-07-25T01:50:31.154Z,101374.52
2018-07-25T01:53:01.372Z,101380.31
2018-07-25T01:55:31.698Z,101382.34
2018-07-25T01:58:01.853Z,101387.27
2018-07-25T02:00:31.976Z,101389.09
2018-07-25T02:03:02.149Z,101394.13
2018-07-25T02:05:32.371Z,101397.05
2018-07-25T02:08:02.385Z,101394.60
2018-07-25T02:10:36.082Z,101392.67
2018-07-25T02:13:06.044Z,101385.47
2018-07-25T02:15:36.635Z,101396.73
2018-07-25T02:18:07.165Z,101389.33
2018-07-25T02:20:37.517Z,101397.19
2018-07-25T02:23:07.515Z,101393.51
2018-07-25T02:25:37.622Z,101391.50
2018-07-25T02:28:10.212Z,101396.44
2018-07-25T02:30:40.457Z,101401.33
2018-07-25T02:33:10.479Z,101403.17
2018-07-25T02:35:40.564Z,101402.12
2018-07-25T02:38:10.706Z,101401.88
2018-07-25T02:40:40.901Z,101401.36
2018-07-25T02:43:11.055Z,101404.40
2018-07-25T02:45:46.366Z,101398.89
2018-07-25T02:48:17.295Z,101406.44
2018-07-25T02:50:47.122Z,101402.06
2018-07-25T02:53:17.127Z,101404.78
2018-07-25T02:55:47.140Z,101408.80
2018-07-25T02:58:17.159Z,101411.47
2018-07-25T03:00:48.300Z,101402.48
2018-07-25T03:03:18.752Z,101407.23
2018-07-25T03:05:48.876Z,101409.66
2018-07-25T03:08:19.068Z,101411.03
2018-07-25T03:10:53.790Z,101414.75
2018-07-25T03:13:24.323Z,101414.71
2018-07-25T03:16:04.275Z,101413.96
2018-07-25T03:18:34.492Z,101412.39
2018-07-25T03:21:04.928Z,101411.70
2018-07-25T03:23:35.896Z,101410.34
2018-07-25T03:26:05.977Z,101406.37
2018-07-25T03:28:40.420Z,101406.11
2018-07-25T03:31:10.427Z,101408.67
2018-07-25T03:33:40.436Z,101408.84
2018-07-25T03:36:10.413Z,101405.73
2018-07-25T03:38:41.607Z,101405.42
2018-07-25T03:41:11.827Z,101400.39
2018-07-25T03:43:41.949Z,101400.77
2018-07-25T03:46:13.369Z,101399.70
2018-07-25T03:48:43.477Z,101401.53
2018-07-25T03:51:13.572Z,101397.96
2018-07-25T03:53:43.510Z,101402.89
2018-07-25T03:56:13.543Z,101409.80
2018-07-25T03:58:43.617Z,101407.68
2018-07-25T04:01:17.933Z,101412.63
2018-07-25T04:03:47.957Z,101410.41
2018-07-25T04:06:19.553Z,101422.44
2018-07-25T04:08:52.435Z,101419.25
2018-07-25T04:11:24.126Z,101418.73
2018-07-25T04:13:54.148Z,101428.72
2018-07-25T04:16:23.838Z,101423.87
2018-07-25T04:18:53.936Z,101427.39
2018-07-25T04:21:27.025Z,101425.38
2018-07-25T04:23:57.045Z,101427.69
2018-07-25T04:26:27.061Z,101426.41
2018-07-25T04:29:00.730Z,101427.73
2018-07-25T04:31:31.552Z,101430.23
2018-07-25T04:34:01.444Z,101425.28
2018-07-25T04:36:32.680Z,101426.65
2018-07-25T04:39:05.492Z,101427.13
2018-07-25T04:41:38.255Z,101422.74
2018-07-25T04:44:08.289Z,101423.49
2018-07-25T04:46:41.650Z,101431.18
2018-07-25T04:49:13.893Z,101438.67
2018-07-25T04:51:51.258Z,101439.39
2018-07-25T04:54:21.317Z,101443.86
2018-07-25T04:56:52.351Z,101440.98
2018-07-25T04:59:24.773Z,101443.82
2018-07-25T05:01:54.934Z,101438.10
2018-07-25T05:04:24.956Z,101443.24
2018-07-25T05:06:54.993Z,101441.41
2018-07-25T05:09:25.121Z,101440.13
2018-07-25T05:11:55.288Z,101447.39
2018-07-25T05:14:25.369Z,101445.20
2018-07-25T05:16:58.270Z,101451.48
2018-07-25T05:19:28.688Z,101451.60
2018-07-25T05:21:58.808Z,101452.52
2018-07-25T05:24:29.857Z,101451.82
2018-07-25T05:26:59.441Z,101452.39
2018-07-25T05:29:31.528Z,101451.92
2018-07-25T05:32:05.327Z,101454.14
2018-07-25T05:34:37.342Z,101455.13
2018-07-25T05:37:10.228Z,101450.64
2018-07-25T05:39:40.589Z,101451.71
2018-07-25T05:42:11.221Z,101444.31
2018-07-25T05:44:41.450Z,101453.97
2018-07-25T05:47:13.111Z,101446.70
2018-07-25T05:49:44.584Z,101448.42
2018-07-25T05:52:14.720Z,101450.41
2018-07-25T05:54:46.796Z,101449.44
2018-07-25T05:57:17.481Z,101450.94
2018-07-25T05:59:48.389Z,101451.00
2018-07-25T06:02:19.538Z,101451.65
2018-07-25T06:04:49.867Z,101454.82
2018-07-25T06:07:19.815Z,101457.41
2018-07-25T06:09:49.958Z,101456.95
2018-07-25T06:12:20.192Z,101460.95
2018-07-25T06:14:50.946Z,101464.36
2018-07-25T06:17:21.269Z,101463.42
2018-07-25T06:19:51.061Z,101461.47
2018-07-25T06:22:21.310Z,101458.72
2018-07-25T06:27:23.968Z,101459.80
2018-07-25T06:29:54.234Z,101459.61
2018-07-25T06:32:24.459Z,101460.88
2018-07-25T06:34:54.863Z,101462.52
2018-07-25T06:37:25.608Z,101458.65
2018-07-25T06:39:55.643Z,101462.31
2018-07-25T06:42:27.108Z,101465.66
2018-07-25T06:44:57.353Z,101464.32
2018-07-25T06:47:27.513Z,101464.66
2018-07-25T06:50:01.320Z,101461.73
2018-07-25T06:52:31.597Z,101461.33
2018-07-25T06:55:10.232Z,101471.57
2018-07-25T06:57:40.715Z,101469.70
2018-07-25T07:00:18.463Z,101473.19
2018-07-25T07:02:53.822Z,101473.50
2018-07-25T07:05:27.982Z,101470.19
2018-07-25T07:07:59.480Z,101468.98
2018-07-25T07:10:33.979Z,101468.48
2018-07-25T07:13:04.456Z,101473.13
2018-07-25T07:15:34.610Z,101476.55
2018-07-25T07:18:06.249Z,101467.08
2018-07-25T07:20:37.649Z,101460.84
2018-07-25T07:23:09.438Z,101470.76
2018-07-25T07:25:43.401Z,101467.44
2018-07-25T07:28:13.556Z,101460.40
2018-07-25T07:33:20.451Z,101472.45
2018-07-25T07:35:58.044Z,101473.14
2018-07-25T07:38:30.351Z,101478.70
2018-07-25T07:41:03.220Z,101473.63
2018-07-25T07:43:36.171Z,101472.56
2018-07-25T07:46:06.972Z,101472.97
2018-07-25T07:48:40.197Z,101469.19
2018-07-25T07:51:11.659Z,101473.16
2018-07-25T07:53:44.428Z,101462.44
2018-07-25T07:56:18.308Z,101466.52
2018-07-25T07:58:49.663Z,101464.59
2018-07-25T08:01:22.982Z,101465.41
2018-07-25T08:03:55.357Z,101468.91
2018-07-25T08:06:26.674Z,101462.70
2018-07-25T08:08:57.594Z,101467.19
2018-07-25T08:11:28.385Z,101463.95
2018-07-25T08:14:07.274Z,101467.91
2018-07-25T08:16:42.553Z,101460.94
2018-07-25T08:19:15.850Z,101464.56
2018-07-25T08:21:46.638Z,101468.70
2018-07-25T08:24:18.203Z,101467.64
2018-07-25T08:26:48.911Z,101469.17
2018-07-25T08:29:20.218Z,101468.13
2018-07-25T08:31:50.502Z,101476.41
2018-07-25T08:34:22.810Z,101469.62
2018-07-25T08:36:53.112Z,101477.09
2018-07-25T08:39:23.476Z,101486.72
2018-07-25T08:41:54.307Z,101473.17
2018-07-25T08:44:24.516Z,101482.51
2018-07-25T08:46:58.684Z,101480.78
2018-07-25T08:49:28.849Z,101479.88
2018-07-25T08:51:59.065Z,101487.35
2018-07-25T08:54:31.680Z,101488.31
2018-07-25T08:57:01.706Z,101483.92
2018-07-25T08:59:32.148Z,101483.20
2018-07-25T09:02:03.154Z,101477.69
2018-07-25T09:04:35.635Z,101484.11
2018-07-25T09:07:09.458Z,101481.19
2018-07-25T09:09:40.659Z,101480.22
2018-07-25T09:12:15.863Z,101487.73
2018-07-25T09:14:46.880Z,101490.64
2018-07-25T09:17:17.623Z,101486.61
2018-07-25T09:19:48.524Z,101484.67
2018-07-25T09:22:20.444Z,101487.70
2018-07-25T09:24:51.809Z,101492.84
2018-07-25T09:27:23.328Z,101499.31
2018-07-25T09:29:54.762Z,101492.38
2018-07-25T09:32:26.598Z,101491.44
2018-07-25T09:34:58.554Z,101491.30
2018-07-25T09:37:31.069Z,101492.03
2018-07-25T09:40:03.710Z,101485.97
2018-07-25T09:42:34.924Z,101488.48
2018-07-25T09:45:08.269Z,101490.49
2018-07-25T09:47:39.426Z,101494.00
2018-07-25T09:50:10.520Z,101487.59
2018-07-25T09:52:41.903Z,101491.37
2018-07-25T09:55:12.457Z,101485.88
2018-07-25T09:57:42.878Z,101486.06
2018-07-25T10:00:14.451Z,101487.11
2018-07-25T10:02:45.358Z,101481.91
2018-07-25T10:05:15.544Z,101486.69
2018-07-25T10:07:46.830Z,101484.47
2018-07-25T10:10:19.145Z,101484.66
2018-07-25T10:12:52.938Z,101486.22
2018-07-25T10:15:23.363Z,101484.27
2018-07-25T10:17:54.075Z,101487.59
2018-07-25T10:20:24.348Z,101479.46
2018-07-25T10:22:55.061Z,101482.91
2018-07-25T10:25:25.356Z,101477.05
2018-07-25T10:27:55.550Z,101470.84
2018-07-25T10:30:25.819Z,101473.25
2018-07-25T10:32:56.196Z,101466.97
2018-07-25T10:35:27.034Z,101476.02
2018-07-25T10:37:57.193Z,101471.83
2018-07-25T10:40:28.849Z,101469.02
2018-07-25T10:42:58.882Z,101470.22
2018-07-25T10:45:29.102Z,101469.69
2018-07-25T10:47:59.268Z,101471.77
2018-07-25T10:50:30.767Z,101462.41
2018-07-25T10:53:01.912Z,101464.41
2018-07-25T10:55:35.048Z,101464.61
2018-07-25T10:58:05.205Z,101468.20
2018-07-25T11:00:37.808Z,101459.92
2018-07-25T11:03:08.332Z,101461.81
2018-07-25T11:05:38.456Z,101465.84
2018-07-25T11:08:08.504Z,101467.91
2018-07-25T11:10:39.149Z,101465.34
2018-07-25T11:13:09.883Z,101469.67
2018-07-25T11:15:41.092Z,101478.14
2018-07-25T11:18:13.129Z,101472.27
2018-07-25T11:20:43.835Z,101466.92
2018-07-25T11:23:17.024Z,101466.20
2018-07-25T11:25:47.247Z,101466.36
2018-07-25T11:28:17.519Z,101468.11
2018-07-25T11:30:47.831Z,101459.45
2018-07-25T11:33:18.831Z,101468.14
2018-07-25T11:35:49.234Z,101462.23
2018-07-25T11:38:19.405Z,101458.44
2018-07-25T11:40:49.631Z,101466.22
2018-07-25T11:43:22.263Z,101450.30
2018-07-25T11:45:52.723Z,101462.56
2018-07-25T11:48:25.714Z,101467.06
2018-07-25T11:50:57.641Z,101461.73
2018-07-25T11:53:28.072Z,101464.72
2018-07-25T11:55:58.423Z,101459.67
2018-07-25T11:58:34.641Z,101456.75
2018-07-25T12:01:06.249Z,101462.98
2018-07-25T12:03:37.027Z,101458.83
2018-07-25T12:06:07.921Z,101457.80
2018-07-25T12:08:40.959Z,101453.30
2018-07-25T12:11:12.940Z,101445.54
2018-07-25T12:13:43.263Z,101443.28
2018-07-25T12:16:14.311Z,101449.50
2018-07-25T12:18:48.708Z,101445.16
2018-07-25T12:21:20.829Z,101448.81
2018-07-25T12:23:50.861Z,101447.59
2018-07-25T12:26:29.331Z,101435.66
2018-07-25T12:29:00.524Z,101437.58
2018-07-25T12:31:34.925Z,101441.57
2018-07-25T12:34:08.386Z,101439.84
2018-07-25T12:36:38.990Z,101433.93
2018-07-25T12:39:10.746Z,101440.30
2018-07-25T12:41:41.055Z,101436.00
2018-07-25T12:44:11.289Z,101431.64
2018-07-25T12:46:41.817Z,101428.55
2018-07-25T12:49:12.396Z,101427.35
2018-07-25T12:51:44.196Z,101427.36
2018-07-25T12:54:15.872Z,101431.48
2018-07-25T12:56:46.695Z,101429.09
2018-07-25T12:59:18.043Z,101424.61
2018-07-25T13:01:48.855Z,101429.77
2018-07-25T13:04:19.367Z,101419.62
2018-07-25T13:06:49.896Z,101413.77
2018-07-25T13:09:20.346Z,101415.81
2018-07-25T13:11:51.006Z,101419.42
2018-07-25T13:14:21.991Z,101418.27
2018-07-25T13:16:54.980Z,101415.50
2018-07-25T13:19:27.827Z,101410.45
2018-07-25T13:21:58.029Z,101408.54
2018-07-25T13:24:28.688Z,101404.89
2018-07-25T13:26:59.504Z,101399.90
2018-07-25T13:29:31.755Z,101401.62
2018-07-25T13:32:02.875Z,101399.86
2018-07-25T13:34:35.919Z,101403.31
2018-07-25T13:37:06.465Z,101392.27
2018-07-25T13:39:36.448Z,101399.02
2018-07-25T13:42:07.192Z,101400.38
2018-07-25T13:44:37.370Z,101399.17
2018-07-25T13:47:07.684Z,101406.87
2018-07-25T13:49:37.826Z,101409.27
2018-07-25T13:52:09.421Z,101406.17
2018-07-25T13:54:41.745Z,101404.11
2018-07-25T13:57:13.960Z,101410.91
2018-07-25T13:59:43.807Z,101418.50
2018-07-25T14:02:15.716Z,101426.68
2018-07-25T14:04:51.649Z,101420.95
2018-07-25T14:07:22.033Z,101429.43
2018-07-25T14:09:52.753Z,101419.77
2018-07-25T14:12:24.799Z,101412.55
2018-07-25T14:14:55.955Z,101413.24
2018-07-25T14:17:25.875Z,101421.18
2018-07-25T14:19:55.707Z,101423.95
2018-07-25T14:22:26.294Z,101432.95
2018-07-25T14:24:56.715Z,101436.75
2018-07-25T14:27:26.515Z,101438.47
2018-07-25T14:29:57.653Z,101442.25
2018-07-25T14:32:27.750Z,101453.13
2018-07-25T14:34:57.890Z,101465.19
2018-07-25T14:37:27.841Z,101473.85
2018-07-25T14:39:57.822Z,101484.03
2018-07-25T14:42:28.902Z,101488.84
2018-07-25T14:45:02.818Z,101491.17
2018-07-25T14:47:34.743Z,101487.12
2018-07-25T14:50:05.843Z,101478.58
2018-07-25T14:52:36.294Z,101477.58
2018-07-25T14:55:07.845Z,101468.92
2018-07-25T14:57:38.096Z,101452.72
2018-07-25T15:00:09.012Z,101451.88
2018-07-25T15:02:39.279Z,101442.89
2018-07-25T15:05:09.751Z,101438.78
2018-07-25T15:07:39.877Z,101442.88
2018-07-25T15:10:10.632Z,101437.02
2018-07-25T15:12:42.463Z,101440.72
2018-07-25T15:15:13.024Z,101448.55
2018-07-25T15:17:43.776Z,101458.45
2018-07-25T15:20:15.013Z,101465.00
2018-07-25T15:22:49.512Z,101470.55
2018-07-25T15:25:22.324Z,101474.20
2018-07-25T15:27:55.710Z,101477.56
2018-07-25T15:30:26.016Z,101481.73
2018-07-25T15:33:00.017Z,101488.13
2018-07-25T15:35:30.127Z,101492.27
2018-07-25T15:38:02.354Z,101502.30
2018-07-25T15:40:32.524Z,101498.90
2018-07-25T15:43:02.910Z,101494.86
2018-07-25T15:45:32.774Z,101501.67
2018-07-25T15:48:02.847Z,101507.75
2018-07-25T15:50:33.000Z,101515.99
2018-07-25T15:53:03.179Z,101526.27
2018-07-25T15:55:34.817Z,101538.41
2018-07-25T15:58:05.365Z,101544.11
2018-07-25T16:00:35.621Z,101544.88
2018-07-25T16:03:05.798Z,101549.02
2018-07-25T16:05:36.304Z,101553.48
2018-07-25T16:08:06.668Z,101546.98
2018-07-25T16:10:37.961Z,101547.39
2018-07-25T16:13:08.612Z,101546.55
2018-07-25T16:15:39.089Z,101549.88
2018-07-25T16:18:09.453Z,101540.20
2018-07-25T16:20:39.738Z,101546.05
2018-07-25T16:23:10.074Z,101545.16
2018-07-25T16:25:41.774Z,101541.77
2018-07-25T16:28:15.232Z,101535.27
2018-07-25T16:30:45.705Z,101531.46
2018-07-25T16:33:19.925Z,101531.55
2018-07-25T16:35:51.833Z,101522.06
2018-07-25T16:38:23.907Z,101518.77
2018-07-25T16:40:54.439Z,101509.77
2018-07-25T16:43:24.826Z,101514.41
2018-07-25T16:45:55.164Z,101512.76
2018-07-25T16:48:29.619Z,101510.08
2018-07-25T16:51:00.009Z,101507.18
2018-07-25T16:53:33.020Z,101502.63
2018-07-25T16:56:08.643Z,101504.07
2018-07-25T16:58:39.298Z,101507.61
2018-07-25T17:01:11.424Z,101496.56
2018-07-25T17:03:44.669Z,101502.11
2018-07-25T17:06:24.289Z,101497.09
2018-07-25T17:08:55.984Z,101495.04
2018-07-25T17:11:28.256Z,101496.20
2018-07-25T17:14:01.884Z,101484.06
2018-07-25T17:16:32.459Z,101484.39
2018-07-25T17:19:05.964Z,101482.25
2018-07-25T17:21:36.724Z,101483.74
2018-07-25T17:24:07.569Z,101482.59
2018-07-25T17:26:41.800Z,101480.93
2018-07-25T17:29:12.087Z,101474.48
2018-07-25T17:31:44.351Z,101484.30
2018-07-25T17:34:19.614Z,101481.33
2018-07-25T17:36:50.518Z,101482.92
2018-07-25T17:39:22.176Z,101486.25
2018-07-25T17:41:53.214Z,101485.03
2018-07-25T17:44:24.792Z,101493.73
2018-07-25T17:46:55.876Z,101488.11
2018-07-25T17:49:26.661Z,101487.86
2018-07-25T17:52:00.939Z,101494.81
2018-07-25T17:54:32.224Z,101494.63
2018-07-25T17:57:03.229Z,101488.52
2018-07-25T17:59:33.901Z,101487.58
2018-07-25T18:02:06.223Z,101493.28
2018-07-25T18:04:37.932Z,101491.02
2018-07-25T18:07:09.491Z,101489.36
2018-07-25T18:09:40.112Z,101489.03
2018-07-25T18:12:12.180Z,101485.84
2018-07-25T18:14:42.067Z,101494.61
2018-07-25T18:17:13.154Z,101493.20
2018-07-25T18:19:43.776Z,101491.70
2018-07-25T18:22:14.497Z,101489.18
2018-07-25T18:24:45.013Z,101493.18
2018-07-25T18:27:15.939Z,101496.75
2018-07-25T18:29:47.493Z,101492.13
2018-07-25T18:32:18.125Z,101491.05
2018-07-25T18:34:48.617Z,101488.69
2018-07-25T18:37:19.948Z,101493.91
2018-07-25T18:39:50.774Z,101493.34
2018-07-25T18:42:21.921Z,101494.88
2018-07-25T18:44:53.051Z,101490.47
2018-07-25T18:47:23.316Z,101489.81
2018-07-25T18:49:53.311Z,101493.28
2018-07-25T18:52:23.604Z,101494.50
2018-07-25T18:54:54.556Z,101492.59
2018-07-25T18:57:24.637Z,101491.55
2018-07-25T18:59:54.970Z,101484.02
2018-07-25T19:02:25.182Z,101491.48
2018-07-25T19:04:55.205Z,101489.32
2018-07-25T19:07:25.478Z,101491.35
2018-07-25T19:09:56.256Z,101497.58
2018-07-25T19:12:26.433Z,101495.19
2018-07-25T19:15:01.677Z,101496.83
2018-07-25T19:17:32.145Z,101497.87
2018-07-25T19:20:02.645Z,101498.63
2018-07-25T19:22:32.889Z,101510.91
2018-07-25T19:25:03.626Z,101508.93
2018-07-25T19:27:33.937Z,101509.54
2018-07-25T19:30:04.564Z,101513.83
2018-07-25T19:32:35.730Z,101515.37
2018-07-25T19:35:08.518Z,101514.23
2018-07-25T19:37:38.686Z,101521.80
2018-07-25T19:40:08.857Z,101513.17
2018-07-25T19:42:38.982Z,101518.91
2018-07-25T19:45:09.922Z,101517.12
2018-07-25T19:47:40.837Z,101519.39
2018-07-25T19:50:11.776Z,101517.23
2018-07-25T19:52:42.573Z,101516.92
2018-07-25T19:55:13.360Z,101512.52
2018-07-25T19:57:43.529Z,101511.67
2018-07-25T20:00:16.550Z,101511.34
2018-07-25T20:02:44.444Z,101500.09
2018-07-25T20:05:17.821Z,101503.52
2018-07-25T20:07:47.996Z,101503.06
2018-07-25T20:10:21.990Z,101499.46
2018-07-25T20:12:52.871Z,101497.56
2018-07-25T20:15:27.828Z,101497.36
2018-07-25T20:17:58.309Z,101496.09
2018-07-25T20:20:28.650Z,101499.36
2018-07-25T20:23:01.169Z,101506.28
2018-07-25T20:25:32.820Z,101505.34
2018-07-25T20:28:03.057Z,101505.92
2018-07-25T20:30:33.153Z,101508.34
2018-07-25T20:33:03.220Z,101508.94
2018-07-25T20:35:33.429Z,101512.74
2018-07-25T20:38:03.728Z,101510.95
2018-07-25T20:40:33.905Z,101511.84
2018-07-25T20:43:04.381Z,101512.27
2018-07-25T20:45:34.501Z,101513.89
2018-07-25T20:48:04.860Z,101517.64
2018-07-25T20:50:35.253Z,101514.68
2018-07-25T20:53:06.747Z,101516.48
2018-07-25T20:55:36.995Z,101514.16
2018-07-25T20:58:07.078Z,101524.35
2018-07-25T21:00:37.676Z,101519.53
2018-07-25T21:03:08.661Z,101513.09
2018-07-25T21:05:39.315Z,101517.89
2018-07-25T21:08:09.752Z,101515.14
2018-07-25T21:10:40.514Z,101516.59
2018-07-25T21:13:11.790Z,101520.28
2018-07-25T21:15:43.993Z,101525.72
2018-07-25T21:18:14.440Z,101531.64
2018-07-25T21:20:46.905Z,101540.17
2018-07-25T21:23:18.166Z,101543.32
2018-07-25T21:25:49.112Z,101543.48
2018-07-25T21:28:19.510Z,101549.75
2018-07-25T21:30:50.266Z,101557.66
2018-07-25T21:33:21.699Z,101555.81
2018-07-25T21:35:51.796Z,101555.97
2018-07-25T21:38:23.536Z,101550.91
2018-07-25T21:40:55.087Z,101550.13
2018-07-25T21:43:25.691Z,101556.73
2018-07-25T21:45:56.437Z,101556.00
2018-07-25T21:48:30.199Z,101558.15
2018-07-25T21:51:05.268Z,101562.55
2018-07-25T21:53:37.170Z,101570.00
2018-07-25T21:56:09.942Z,101569.93
2018-07-25T21:58:40.366Z,101584.94
2018-07-25T22:01:18.001Z,101584.33
2018-07-25T22:03:49.317Z,101589.20
2018-07-25T22:06:19.984Z,101591.58
2018-07-25T22:08:51.055Z,101583.09
2018-07-25T22:11:21.826Z,101580.58
2018-07-25T22:13:57.205Z,101579.14
2018-07-25T22:16:28.203Z,101583.41
2018-07-25T22:19:04.002Z,101578.03
2018-07-25T22:21:34.460Z,101586.55
2018-07-25T22:24:04.575Z,101583.95
2018-07-25T22:26:35.525Z,101579.92
2018-07-25T22:29:05.664Z,101586.78
2018-07-25T22:31:36.176Z,101584.19
2018-07-25T22:34:09.227Z,101595.06
2018-07-25T22:36:39.255Z,101591.48
2018-07-25T22:39:10.913Z,101594.38
2018-07-25T22:41:41.039Z,101588.38
2018-07-25T22:44:11.135Z,101590.73
2018-07-25T22:46:41.155Z,101594.06
2018-07-25T22:49:48.123Z,101599.31
2018-07-25T22:52:18.199Z,101590.33
2018-07-25T22:54:50.409Z,101598.02
2018-07-25T22:57:20.374Z,101596.02
2018-07-25T22:59:51.324Z,101596.13
2018-07-25T23:02:21.736Z,101600.69
2018-07-25T23:04:51.931Z,101599.09
2018-07-25T23:07:21.952Z,101591.51
2018-07-25T23:09:51.856Z,101590.70
2018-07-25T23:12:23.153Z,101595.10
2018-07-25T23:14:53.221Z,101587.88
2018-07-25T23:17:23.512Z,101601.44
2018-07-25T23:19:53.577Z,101599.63
2018-07-25T23:22:23.679Z,101595.82
2018-07-25T23:24:53.922Z,101595.03
2018-07-25T23:27:24.024Z,101596.26
2018-07-25T23:29:53.884Z,101602.64
2018-07-25T23:32:24.125Z,101601.20
2018-07-25T23:34:54.035Z,101605.42
2018-07-25T23:37:24.085Z,101599.55
2018-07-25T23:39:54.272Z,101603.02
2018-07-25T23:42:24.283Z,101598.23
2018-07-25T23:44:54.420Z,101602.83
2018-07-25T23:47:24.571Z,101604.55
2018-07-25T23:49:54.580Z,101601.33
2018-07-25T23:52:24.685Z,101600.44
2018-07-25T23:54:54.769Z,101604.64
2018-07-25T23:57:24.976Z,101600.36
2018-07-25T23:59:55.170Z,101598.44
